ENKB/KSU METAR and TAF weather

Enter ICAO airport designator
Station Type Date Time Source
ENKB METAR 2022/11/27 08:20 UTC NOAA

ENKB 270820Z AUTO 09007KT 060V140 9999 NCD 09/M03 Q1010 RMK WIND 745FT 13016KT


Station Type Date Time Source
ENKB Decoded METAR 2022/11/27 08:20 UTC NOAA

Kristiansund / Kvernberget, Norway (ENKB) 63-07N 007-50E 62M
Nov 27, 2022 - 03:20 AM EST / 2022.11.27 0820 UTC
Wind: from the E (090 degrees) at 8 MPH (7 KT) (direction variable):0
Visibility: greater than 7 mile(s):0
Temperature: 48 F (9 C)
Dew Point: 26 F (-3 C)
Relative Humidity: 42%
Pressure (altimeter): 29.83 in. Hg (1010 hPa)
ob: ENKB 270820Z AUTO 09007KT 060V140 9999 NCD 09/M03 Q1010 RMK WIND 745FT 13016KT
cycle: 8

Station Type Date Time Source
ENKB TAF 2010/02/05 07:50 UTC NOAA

METAR ENKB 050750Z 15011KT 110V200 9999 SCT055 BKN070 03/M05 Q1007

Example: see airport list